createdAt,value
2017-09-02T00:00:05.233Z,4.95
2017-09-02T00:02:33.374Z,4.80
2017-09-02T00:05:01.536Z,4.62
2017-09-02T00:07:29.707Z,5.22
2017-09-02T00:09:57.854Z,6.35
2017-09-02T00:12:26.014Z,5.47
2017-09-02T00:14:54.502Z,5.45
2017-09-02T00:17:22.647Z,5.18
2017-09-02T00:19:50.790Z,4.65
2017-09-02T00:22:18.981Z,5.68
2017-09-02T00:24:47.899Z,4.65
2017-09-02T00:27:16.047Z,6.68
2017-09-02T00:29:44.226Z,5.30
2017-09-02T00:32:12.370Z,5.20
2017-09-02T00:34:40.514Z,5.37
2017-09-02T00:37:08.685Z,5.80
2017-09-02T00:39:36.833Z,7.75
2017-09-02T00:42:04.973Z,6.70
2017-09-02T00:44:33.157Z,6.37
2017-09-02T00:47:02.067Z,6.25
2017-09-02T00:49:30.232Z,7.40
2017-09-02T00:51:58.431Z,6.05
2017-09-02T00:54:26.570Z,5.90
2017-09-02T00:56:55.505Z,4.35
2017-09-02T00:59:23.691Z,5.35
2017-09-02T01:01:51.858Z,5.35
2017-09-02T01:04:20.006Z,5.10
2017-09-02T01:06:48.180Z,5.07
2017-09-02T01:09:16.326Z,5.05
2017-09-02T01:11:44.470Z,5.30
2017-09-02T01:14:12.646Z,5.57
2017-09-02T01:16:40.869Z,5.62
2017-09-02T01:19:09.036Z,5.68
2017-09-02T01:21:38.595Z,6.00
2017-09-02T01:24:07.378Z,4.65
2017-09-02T01:26:35.592Z,5.30
2017-09-02T01:29:03.764Z,5.62
2017-09-02T01:31:31.937Z,6.40
2017-09-02T01:34:00.100Z,5.20
2017-09-02T01:36:28.287Z,5.03
2017-09-02T01:38:56.449Z,5.47
2017-09-02T01:41:24.595Z,5.72
2017-09-02T01:43:52.767Z,5.50
2017-09-02T01:46:20.928Z,6.65
2017-09-02T01:48:49.075Z,6.25
2017-09-02T01:51:17.252Z,5.60
2017-09-02T01:53:45.393Z,5.68
2017-09-02T01:56:13.539Z,5.28
2017-09-02T01:58:41.737Z,5.45
2017-09-02T02:01:09.879Z,5.70
2017-09-02T02:03:38.043Z,5.40
2017-09-02T02:06:06.230Z,5.90
2017-09-02T02:08:34.389Z,6.62
2017-09-02T02:11:02.557Z,5.65
2017-09-02T02:13:30.749Z,5.60
2017-09-02T02:15:58.893Z,5.20
2017-09-02T02:18:27.803Z,5.43
2017-09-02T02:20:55.972Z,6.10
2017-09-02T02:23:24.119Z,5.30
2017-09-02T02:25:52.290Z,5.47
2017-09-02T02:28:20.466Z,5.22
2017-09-02T02:30:48.613Z,5.53
2017-09-02T02:33:16.773Z,5.82
2017-09-02T02:35:44.940Z,5.80
2017-09-02T02:38:13.091Z,5.75
2017-09-02T02:40:41.252Z,5.20
2017-09-02T02:43:09.424Z,4.90
2017-09-02T02:45:37.584Z,5.40
2017-09-02T02:48:05.721Z,5.80
2017-09-02T02:50:33.917Z,6.25
2017-09-02T02:53:02.063Z,6.78
2017-09-02T02:55:30.211Z,7.47
2017-09-02T02:57:58.400Z,8.02
2017-09-02T03:00:26.546Z,7.07
2017-09-02T03:02:54.693Z,7.87
2017-09-02T03:05:22.862Z,7.03
2017-09-02T03:07:51.024Z,7.00
2017-09-02T03:10:19.165Z,6.65
2017-09-02T03:12:47.335Z,5.90
2017-09-02T03:15:15.477Z,6.03
2017-09-02T03:17:43.640Z,6.05
2017-09-02T03:20:11.815Z,5.93
2017-09-02T03:22:39.989Z,5.15
2017-09-02T03:25:08.151Z,6.43
2017-09-02T03:27:36.347Z,6.60
2017-09-02T03:30:04.510Z,7.03
2017-09-02T03:32:32.678Z,7.25
2017-09-02T03:35:00.871Z,6.25
2017-09-02T03:37:29.015Z,5.97
2017-09-02T03:39:57.218Z,6.47
2017-09-02T03:42:25.410Z,6.90
2017-09-02T03:44:53.585Z,5.90
2017-09-02T03:47:21.743Z,5.53
2017-09-02T03:49:49.918Z,6.22
2017-09-02T03:52:18.087Z,6.22
2017-09-02T03:54:46.309Z,5.85
2017-09-02T03:57:14.501Z,5.80
2017-09-02T03:59:42.666Z,6.78
2017-09-02T04:02:10.807Z,6.18
2017-09-02T04:04:39.000Z,6.62
2017-09-02T04:07:07.142Z,6.62
2017-09-02T04:09:35.283Z,6.65
2017-09-02T04:12:03.469Z,6.57
2017-09-02T04:14:31.741Z,6.40
2017-09-02T04:16:59.902Z,6.37
2017-09-02T04:19:28.082Z,6.40
2017-09-02T04:21:56.251Z,5.80
2017-09-02T04:24:24.412Z,5.90
2017-09-02T04:26:52.578Z,6.62
2017-09-02T04:29:20.740Z,6.57
2017-09-02T04:31:48.886Z,6.68
2017-09-02T04:34:17.076Z,7.05
2017-09-02T04:36:45.233Z,5.85
2017-09-02T04:39:13.380Z,6.25
2017-09-02T04:41:41.576Z,6.22
2017-09-02T04:44:09.741Z,6.07
2017-09-02T04:46:37.891Z,6.28
2017-09-02T04:49:06.169Z,6.20
2017-09-02T04:51:34.333Z,5.75
2017-09-02T04:54:02.474Z,6.37
2017-09-02T04:56:30.641Z,6.57
2017-09-02T04:58:58.787Z,6.12
2017-09-02T05:01:26.956Z,6.75
2017-09-02T05:03:55.131Z,6.75
2017-09-02T05:06:23.296Z,6.60
2017-09-02T05:08:51.442Z,7.93
2017-09-02T05:11:19.610Z,7.15
2017-09-02T05:13:47.757Z,7.35
2017-09-02T05:16:15.920Z,6.87
2017-09-02T05:18:44.114Z,6.80
2017-09-02T05:21:12.281Z,6.90
2017-09-02T05:23:41.195Z,7.20
2017-09-02T05:26:09.370Z,7.50
2017-09-02T05:28:37.532Z,7.50
2017-09-02T05:31:06.444Z,8.40
2017-09-02T05:33:34.633Z,7.05
2017-09-02T05:36:02.804Z,7.68
2017-09-02T05:38:30.948Z,6.85
2017-09-02T05:40:59.131Z,7.50
2017-09-02T05:43:27.295Z,7.35
2017-09-02T05:45:55.444Z,8.13
2017-09-02T05:48:23.637Z,7.45
2017-09-02T05:50:51.802Z,6.75
2017-09-02T05:53:19.950Z,7.35
2017-09-02T05:55:48.150Z,6.60
2017-09-02T05:58:16.294Z,7.00
2017-09-02T06:00:44.459Z,7.50
2017-09-02T06:03:12.652Z,8.10
2017-09-02T06:05:40.797Z,7.32
2017-09-02T06:08:08.965Z,7.97
2017-09-02T06:10:37.157Z,8.05
2017-09-02T06:13:05.301Z,8.80
2017-09-02T06:15:34.211Z,7.68
2017-09-02T06:18:02.413Z,7.68
2017-09-02T06:20:30.557Z,7.55
2017-09-02T06:22:58.701Z,8.07
2017-09-02T06:25:26.888Z,7.80
2017-09-02T06:27:55.052Z,8.15
2017-09-02T06:30:23.963Z,7.87
2017-09-02T06:32:52.142Z,7.30
2017-09-02T06:35:20.288Z,7.65
2017-09-02T06:37:48.434Z,6.87
2017-09-02T06:40:16.628Z,7.37
2017-09-02T06:42:44.792Z,7.93
2017-09-02T06:45:12.942Z,7.80
2017-09-02T06:47:41.138Z,7.60
2017-09-02T06:50:09.290Z,7.20
2017-09-02T06:52:37.434Z,8.32
2017-09-02T06:55:05.607Z,9.27
2017-09-02T06:57:33.767Z,7.32
2017-09-02T07:00:01.936Z,6.60
2017-09-02T07:02:30.107Z,6.10
2017-09-02T07:04:58.250Z,6.10
2017-09-02T07:07:26.417Z,7.03
2017-09-02T07:09:54.590Z,6.22
2017-09-02T07:12:22.735Z,7.28
2017-09-02T07:14:50.898Z,7.45
2017-09-02T07:17:19.085Z,6.70
2017-09-02T07:19:47.247Z,7.55
2017-09-02T07:22:15.417Z,8.95
2017-09-02T07:24:43.601Z,6.05
2017-09-02T07:27:11.747Z,6.03
2017-09-02T07:29:39.899Z,6.75
2017-09-02T07:32:08.069Z,6.00
2017-09-02T07:34:36.241Z,6.20
2017-09-02T07:37:04.398Z,6.07
2017-09-02T07:39:32.590Z,5.10
2017-09-02T07:42:00.735Z,5.70
2017-09-02T07:44:28.898Z,5.57
2017-09-02T07:46:57.085Z,5.65
2017-09-02T07:49:25.245Z,4.40
2017-09-02T07:51:53.415Z,9.10
2017-09-02T07:54:21.586Z,4.90
2017-09-02T07:56:49.749Z,5.87
2017-09-02T07:59:17.913Z,5.90
2017-09-02T08:01:46.086Z,5.62
2017-09-02T08:04:14.234Z,4.35
2017-09-02T08:06:42.396Z,4.65
2017-09-02T08:09:10.570Z,4.10
2017-09-02T08:11:38.718Z,4.72
2017-09-02T08:14:06.885Z,4.50
2017-09-02T08:16:35.066Z,4.57
2017-09-02T08:19:03.234Z,4.10
2017-09-02T08:21:31.403Z,4.00
2017-09-02T08:23:59.583Z,4.23
2017-09-02T08:26:27.745Z,3.53
2017-09-02T08:28:55.913Z,3.70
2017-09-02T08:31:24.096Z,3.40
2017-09-02T08:33:52.277Z,3.65
2017-09-02T08:38:48.197Z,3.23
2017-09-02T08:41:17.105Z,2.83
2017-09-02T08:43:46.033Z,3.47
2017-09-02T08:46:14.220Z,3.30
2017-09-02T08:48:42.385Z,2.93
2017-09-02T08:51:10.530Z,3.43
2017-09-02T08:53:38.722Z,3.93
2017-09-02T08:56:06.881Z,3.53
2017-09-02T08:58:35.036Z,4.10
2017-09-02T09:01:03.214Z,3.97
2017-09-02T09:03:31.366Z,3.90
2017-09-02T09:05:59.546Z,3.10
2017-09-02T09:08:27.724Z,4.13
2017-09-02T09:10:56.668Z,3.20
2017-09-02T09:13:24.818Z,2.57
2017-09-02T09:15:53.033Z,2.77
2017-09-02T09:18:21.181Z,2.70
2017-09-02T09:20:49.338Z,2.30
2017-09-02T09:23:17.539Z,2.50
2017-09-02T09:25:45.682Z,2.73
2017-09-02T09:28:13.830Z,2.70
2017-09-02T09:30:42.778Z,2.70
2017-09-02T09:33:10.946Z,2.27
2017-09-02T09:35:39.098Z,2.27
2017-09-02T09:38:07.288Z,2.17
2017-09-02T09:40:35.453Z,2.23
2017-09-02T09:43:03.594Z,2.20
2017-09-02T09:45:31.766Z,2.33
2017-09-02T09:47:59.907Z,2.10
2017-09-02T09:50:28.075Z,2.00
2017-09-02T09:52:56.267Z,1.77
2017-09-02T09:55:24.410Z,2.03
2017-09-02T09:57:52.555Z,2.23
2017-09-02T10:00:20.745Z,2.80
2017-09-02T10:02:48.894Z,2.20
2017-09-02T10:05:17.041Z,3.07
2017-09-02T10:07:45.229Z,2.33
2017-09-02T10:10:13.397Z,2.20
2017-09-02T10:12:41.541Z,2.43
2017-09-02T10:15:09.715Z,2.30
2017-09-02T10:17:37.856Z,2.00
2017-09-02T10:20:06.021Z,1.90
2017-09-02T10:22:34.967Z,2.47
2017-09-02T10:25:03.133Z,2.30
2017-09-02T10:27:31.288Z,2.03
2017-09-02T10:29:59.479Z,1.70
2017-09-02T10:32:27.644Z,2.10
2017-09-02T10:34:55.802Z,2.20
2017-09-02T10:37:23.996Z,2.20
2017-09-02T10:39:52.142Z,2.27
2017-09-02T10:42:20.285Z,2.13
2017-09-02T10:44:48.458Z,2.03
2017-09-02T10:47:17.365Z,2.30
2017-09-02T10:49:45.506Z,2.17
2017-09-02T10:52:13.738Z,1.97
2017-09-02T10:54:42.675Z,2.00
2017-09-02T10:57:10.840Z,2.50
2017-09-02T10:59:39.017Z,2.10
2017-09-02T11:02:07.184Z,2.47
2017-09-02T11:04:35.351Z,2.40
2017-09-02T11:07:03.531Z,2.20
2017-09-02T11:09:31.697Z,2.47
2017-09-02T11:11:59.863Z,1.90
2017-09-02T11:14:28.034Z,1.97
2017-09-02T11:16:56.181Z,2.17
2017-09-02T11:19:24.351Z,2.33
2017-09-02T11:21:52.554Z,2.40
2017-09-02T11:24:20.711Z,2.07
2017-09-02T11:26:48.876Z,2.40
2017-09-02T11:29:17.068Z,1.80
2017-09-02T11:31:45.237Z,2.00
2017-09-02T11:34:13.405Z,1.83
2017-09-02T11:36:41.574Z,2.20
2017-09-02T11:39:09.755Z,1.83
2017-09-02T11:41:38.676Z,2.10
2017-09-02T11:44:06.842Z,1.83
2017-09-02T11:46:35.005Z,3.27
2017-09-02T11:49:03.166Z,2.30
2017-09-02T11:51:32.124Z,2.40
2017-09-02T11:54:00.289Z,2.33
2017-09-02T11:56:28.439Z,2.20
2017-09-02T11:58:56.637Z,2.10
2017-09-02T12:01:24.797Z,2.10
2017-09-02T12:03:52.964Z,1.73
2017-09-02T12:06:21.138Z,2.30
2017-09-02T12:08:49.332Z,2.20
2017-09-02T12:11:17.503Z,2.07
2017-09-02T12:13:45.732Z,2.57
2017-09-02T12:16:13.904Z,2.63
2017-09-02T12:18:42.065Z,2.60
2017-09-02T12:21:10.256Z,2.57
2017-09-02T12:23:38.420Z,1.90
2017-09-02T12:26:06.567Z,2.57
2017-09-02T12:28:34.756Z,2.20
2017-09-02T12:31:02.925Z,2.37
2017-09-02T12:33:31.073Z,1.90
2017-09-02T12:35:59.264Z,2.50
2017-09-02T12:38:27.406Z,2.43
2017-09-02T12:40:55.583Z,2.70
2017-09-02T12:43:23.775Z,2.80
2017-09-02T12:45:51.935Z,2.53
2017-09-02T12:48:20.102Z,2.37
2017-09-02T12:50:48.303Z,2.33
2017-09-02T12:53:16.445Z,2.43
2017-09-02T12:55:44.594Z,2.53
2017-09-02T12:58:12.766Z,3.57
2017-09-02T13:00:40.984Z,2.40
2017-09-02T13:03:09.152Z,2.60
2017-09-02T13:05:37.327Z,2.37
2017-09-02T13:08:05.495Z,2.37
2017-09-02T13:10:33.669Z,2.47
2017-09-02T13:13:01.847Z,2.30
2017-09-02T13:15:30.019Z,2.33
2017-09-02T13:17:58.191Z,2.40
2017-09-02T13:20:26.412Z,2.70
2017-09-02T13:22:54.584Z,2.50
2017-09-02T13:25:22.753Z,2.13
2017-09-02T13:27:50.942Z,2.37
2017-09-02T13:30:19.111Z,2.20
2017-09-02T13:32:47.258Z,2.60
2017-09-02T13:35:15.430Z,2.10
2017-09-02T13:37:43.597Z,3.03
2017-09-02T13:40:11.764Z,2.10
2017-09-02T13:42:39.954Z,2.70
2017-09-02T13:45:08.102Z,2.60
2017-09-02T13:47:36.277Z,2.97
2017-09-02T13:50:04.450Z,3.27
2017-09-02T13:52:32.625Z,3.07
2017-09-02T13:55:00.780Z,2.37
2017-09-02T13:57:28.977Z,2.33
2017-09-02T13:59:57.136Z,2.77
2017-09-02T14:02:25.286Z,2.43
2017-09-02T14:04:53.460Z,2.40
2017-09-02T14:07:21.618Z,2.93
2017-09-02T14:09:49.775Z,2.60
2017-09-02T14:12:17.965Z,2.20
2017-09-02T14:14:46.132Z,2.50
2017-09-02T14:17:14.292Z,2.20
2017-09-02T14:19:42.488Z,2.53
2017-09-02T14:22:10.632Z,3.10
2017-09-02T14:24:38.782Z,4.00
2017-09-02T14:27:07.036Z,2.80
2017-09-02T14:29:35.205Z,2.77
2017-09-02T14:32:03.357Z,3.33
2017-09-02T14:34:31.566Z,2.90
2017-09-02T14:37:00.684Z,2.70
2017-09-02T14:39:28.853Z,2.67
2017-09-02T14:41:57.053Z,2.95
2017-09-02T14:44:25.235Z,3.08
2017-09-02T14:46:53.417Z,2.70
2017-09-02T14:49:21.612Z,2.70
2017-09-02T14:51:49.790Z,3.03
2017-09-02T14:54:17.951Z,2.95
2017-09-02T14:56:46.128Z,2.50
2017-09-02T14:59:14.283Z,2.40
2017-09-02T15:01:42.479Z,2.58
2017-09-02T15:04:10.706Z,2.35
2017-09-02T15:06:38.879Z,3.20
2017-09-02T15:09:07.798Z,2.30
2017-09-02T15:11:36.005Z,2.20
2017-09-02T15:14:04.174Z,2.60
2017-09-02T15:16:32.816Z,3.00
2017-09-02T15:19:01.762Z,3.08
2017-09-02T15:21:29.919Z,3.12
2017-09-02T15:23:58.121Z,3.40
2017-09-02T15:26:26.423Z,4.03
2017-09-02T15:28:58.380Z,3.37
2017-09-02T15:31:26.562Z,3.75
2017-09-02T15:33:55.602Z,2.97
2017-09-02T15:36:23.803Z,2.40
2017-09-02T15:38:52.095Z,2.67
2017-09-02T15:41:20.396Z,3.00
2017-09-02T15:43:48.565Z,2.80
2017-09-02T15:46:16.726Z,3.00
2017-09-02T15:48:45.046Z,2.75
2017-09-02T15:51:13.221Z,2.53
2017-09-02T15:53:41.417Z,2.60
2017-09-02T15:56:09.591Z,2.72
2017-09-02T15:58:37.746Z,2.22
2017-09-02T16:01:05.903Z,2.10
2017-09-02T16:03:34.087Z,2.30
2017-09-02T16:06:02.555Z,2.67
2017-09-02T16:08:32.786Z,2.50
2017-09-02T16:11:01.019Z,2.70
2017-09-02T16:13:29.174Z,2.37
2017-09-02T16:15:57.336Z,2.50
2017-09-02T16:18:26.276Z,2.50
2017-09-02T16:20:54.575Z,2.90
2017-09-02T16:23:22.742Z,2.12
2017-09-02T16:25:51.101Z,2.05
2017-09-02T16:28:19.333Z,2.37
2017-09-02T16:30:47.519Z,2.00
2017-09-02T16:33:15.697Z,2.90
2017-09-02T16:35:44.041Z,2.12
2017-09-02T16:38:12.227Z,2.30
2017-09-02T16:40:40.426Z,3.17
2017-09-02T16:43:09.336Z,2.58
2017-09-02T16:45:37.479Z,2.22
2017-09-02T16:48:06.445Z,2.37
2017-09-02T16:50:34.595Z,2.33
2017-09-02T16:53:02.765Z,2.47
2017-09-02T16:55:30.964Z,2.10
2017-09-02T16:57:59.130Z,2.55
2017-09-02T17:00:27.293Z,2.20
2017-09-02T17:02:55.497Z,2.40
2017-09-02T17:05:23.661Z,2.60
2017-09-02T17:07:51.846Z,2.40
2017-09-02T17:10:20.070Z,2.40
2017-09-02T17:12:48.852Z,2.25
2017-09-02T17:15:17.603Z,2.65
2017-09-02T17:17:45.852Z,2.97
2017-09-02T17:20:13.999Z,2.22
2017-09-02T17:22:42.146Z,2.97
2017-09-02T17:25:10.314Z,2.33
2017-09-02T17:27:38.466Z,2.47
2017-09-02T17:30:06.638Z,2.70
2017-09-02T17:32:34.823Z,2.80
2017-09-02T17:35:02.998Z,3.20
2017-09-02T17:37:31.169Z,4.50
2017-09-02T17:40:00.233Z,3.00
2017-09-02T17:42:28.411Z,2.70
2017-09-02T17:44:56.581Z,3.80
2017-09-02T17:47:24.780Z,3.10
2017-09-02T17:49:52.945Z,3.42
2017-09-02T17:52:21.109Z,3.12
2017-09-02T17:54:49.285Z,2.95
2017-09-02T17:57:17.457Z,4.05
2017-09-02T17:59:45.601Z,3.40
2017-09-02T18:02:13.784Z,3.92
2017-09-02T18:04:41.940Z,2.97
2017-09-02T18:07:10.081Z,3.00
2017-09-02T18:09:39.133Z,3.10
2017-09-02T18:12:07.282Z,5.70
2017-09-02T18:14:35.453Z,4.00
2017-09-02T18:17:03.641Z,5.35
2017-09-02T18:19:31.791Z,3.40
2017-09-02T18:21:59.959Z,4.65
2017-09-02T18:24:28.153Z,2.70
2017-09-02T18:26:56.320Z,3.15
2017-09-02T18:29:24.466Z,6.03
2017-09-02T18:31:52.667Z,2.95
2017-09-02T18:34:20.846Z,3.25
2017-09-02T18:36:49.011Z,3.67
2017-09-02T18:39:17.207Z,5.22
2017-09-02T18:41:45.373Z,4.68
2017-09-02T18:44:14.282Z,5.30
2017-09-02T18:46:42.480Z,4.85
2017-09-02T18:49:10.630Z,5.30
2017-09-02T18:51:38.782Z,5.50
2017-09-02T18:54:06.956Z,4.70
2017-09-02T18:56:35.120Z,4.68
2017-09-02T18:59:04.058Z,5.22
2017-09-02T19:01:32.261Z,10.40
2017-09-02T19:04:00.436Z,8.13
2017-09-02T19:06:28.623Z,6.80
2017-09-02T19:08:56.804Z,6.15
2017-09-02T19:11:25.046Z,7.90
2017-09-02T19:13:53.197Z,7.05
2017-09-02T19:16:21.380Z,7.53
2017-09-02T19:18:49.973Z,6.70
2017-09-02T19:21:18.159Z,9.55
2017-09-02T19:23:46.366Z,11.00
2017-09-02T19:26:14.535Z,9.90
2017-09-02T19:28:42.711Z,7.87
2017-09-02T19:31:10.892Z,6.20
2017-09-02T19:33:39.099Z,6.45
2017-09-02T19:36:07.274Z,6.18
2017-09-02T19:38:35.472Z,9.05
2017-09-02T19:41:03.625Z,9.75
2017-09-02T19:43:31.786Z,8.20
2017-09-02T19:45:59.959Z,7.45
2017-09-02T19:48:28.123Z,6.15
2017-09-02T19:50:56.323Z,7.85
2017-09-02T19:53:24.541Z,7.95
2017-09-02T19:55:52.723Z,7.85
2017-09-02T19:58:20.886Z,8.57
2017-09-02T20:00:49.129Z,8.10
2017-09-02T20:03:17.348Z,8.00
2017-09-02T20:05:45.539Z,9.10
2017-09-02T20:08:14.633Z,6.93
2017-09-02T20:10:42.795Z,8.10
2017-09-02T20:13:10.999Z,8.80
2017-09-02T20:15:39.226Z,8.60
2017-09-02T20:18:07.382Z,9.15
2017-09-02T20:20:35.527Z,8.23
2017-09-02T20:23:03.703Z,8.20
2017-09-02T20:25:31.872Z,8.98
2017-09-02T20:28:00.793Z,8.85
2017-09-02T20:30:28.993Z,8.75
2017-09-02T20:32:57.141Z,10.05
2017-09-02T20:35:25.312Z,9.95
2017-09-02T20:37:53.514Z,9.35
2017-09-02T20:40:21.682Z,9.48
2017-09-02T20:42:49.863Z,9.80
2017-09-02T20:45:18.070Z,7.80
2017-09-02T20:47:46.245Z,9.10
2017-09-02T20:50:14.895Z,10.90
2017-09-02T20:52:43.123Z,12.88
2017-09-02T20:55:11.298Z,12.15
2017-09-02T20:57:39.456Z,11.68
2017-09-02T21:00:07.669Z,12.88
2017-09-02T21:02:35.826Z,12.10
2017-09-02T21:05:03.974Z,11.40
2017-09-02T21:07:32.155Z,11.57
2017-09-02T21:10:00.314Z,11.10
2017-09-02T21:12:28.570Z,10.82
2017-09-02T21:14:56.810Z,11.90
2017-09-02T21:17:24.989Z,9.32
2017-09-02T21:19:53.155Z,10.07
2017-09-02T21:22:21.345Z,12.80
2017-09-02T21:24:49.513Z,8.15
2017-09-02T21:27:18.638Z,12.13
2017-09-02T21:29:47.400Z,12.68
2017-09-02T21:32:15.831Z,13.60
2017-09-02T21:34:44.604Z,11.48
2017-09-02T21:37:13.499Z,12.10
2017-09-02T21:39:42.365Z,11.00
2017-09-02T21:42:11.021Z,10.10
2017-09-02T21:44:40.584Z,10.48
2017-09-02T21:47:18.334Z,9.00
2017-09-02T21:49:52.173Z,9.60
2017-09-02T21:52:28.736Z,9.18
2017-09-02T21:55:00.596Z,9.85
2017-09-02T21:57:34.021Z,11.63
2017-09-02T22:00:06.837Z,13.55
2017-09-02T22:02:39.780Z,12.50
2017-09-02T22:05:13.837Z,11.18
2017-09-02T22:07:50.131Z,11.85
2017-09-02T22:10:24.225Z,11.90
2017-09-02T22:12:57.100Z,12.80
2017-09-02T22:18:56.369Z,11.38
2017-09-02T22:21:24.552Z,9.95
2017-09-02T22:23:52.722Z,9.98
2017-09-02T22:26:20.894Z,10.13
2017-09-02T22:28:49.072Z,9.48
2017-09-02T22:31:17.248Z,8.85
2017-09-02T22:33:45.447Z,8.65
2017-09-02T22:36:13.624Z,9.43
2017-09-02T22:38:41.780Z,10.45
2017-09-02T22:41:09.927Z,11.65
2017-09-02T22:43:38.126Z,11.77
2017-09-02T22:46:06.278Z,12.80
2017-09-02T22:48:34.501Z,10.68
2017-09-02T22:51:02.709Z,11.30
2017-09-02T22:53:30.898Z,13.75
2017-09-02T22:55:59.069Z,13.35
2017-09-02T22:58:27.266Z,15.25
2017-09-02T23:00:55.441Z,12.50
2017-09-02T23:03:23.597Z,12.20
2017-09-02T23:05:51.786Z,13.18
2017-09-02T23:08:19.935Z,12.32
2017-09-02T23:10:48.128Z,11.68
2017-09-02T23:13:16.333Z,10.60
2017-09-02T23:15:44.510Z,11.60
2017-09-02T23:18:12.690Z,9.65
2017-09-02T23:20:40.876Z,11.00
2017-09-02T23:23:09.022Z,9.90
2017-09-02T23:25:37.294Z,10.63
2017-09-02T23:28:05.498Z,9.20
2017-09-02T23:30:33.681Z,9.88
2017-09-02T23:33:01.830Z,10.60
2017-09-02T23:35:30.034Z,10.02
2017-09-02T23:37:58.214Z,9.82
2017-09-02T23:40:26.396Z,9.93
2017-09-02T23:42:54.597Z,9.85
2017-09-02T23:45:22.747Z,9.52
2017-09-02T23:47:51.663Z,9.15
2017-09-02T23:50:19.866Z,9.73
2017-09-02T23:52:48.016Z,8.27
2017-09-02T23:55:16.165Z,8.73
2017-09-02T23:57:44.340Z,8.80
